createdAt,value
2017-10-18T00:00:08.892Z,9.80
2017-10-18T00:02:36.990Z,9.80
2017-10-18T00:05:05.768Z,9.60
2017-10-18T00:07:33.787Z,9.60
2017-10-18T00:10:01.769Z,9.50
2017-10-18T00:12:29.784Z,9.60
2017-10-18T00:14:58.588Z,9.60
2017-10-18T00:17:26.684Z,9.60
2017-10-18T00:19:55.480Z,9.50
2017-10-18T00:22:23.534Z,9.40
2017-10-18T00:24:51.673Z,9.50
2017-10-18T00:27:19.761Z,9.40
2017-10-18T00:29:47.786Z,9.50
2017-10-18T00:32:15.835Z,9.50
2017-10-18T00:34:43.798Z,9.40
2017-10-18T00:37:11.848Z,9.40
2017-10-18T00:39:40.713Z,9.30
2017-10-18T00:42:09.533Z,9.30
2017-10-18T00:44:37.532Z,9.30
2017-10-18T00:47:05.579Z,9.30
2017-10-18T00:49:33.550Z,9.30
2017-10-18T00:52:01.594Z,9.30
2017-10-18T00:54:30.392Z,9.30
2017-10-18T00:56:59.176Z,9.30
2017-10-18T00:59:27.215Z,9.30
2017-10-18T01:01:55.273Z,9.20
2017-10-18T01:04:23.251Z,9.20
2017-10-18T01:06:51.250Z,9.10
2017-10-18T01:09:19.201Z,9.20
2017-10-18T01:11:47.237Z,9.20
2017-10-18T01:14:15.182Z,9.10
2017-10-18T01:16:43.971Z,8.90
2017-10-18T01:19:12.713Z,9.00
2017-10-18T01:21:40.696Z,9.00
2017-10-18T01:24:08.754Z,9.00
2017-10-18T01:26:36.787Z,9.00
2017-10-18T01:29:05.580Z,8.80
2017-10-18T01:31:33.607Z,8.80
2017-10-18T01:34:01.595Z,8.70
2017-10-18T01:36:29.668Z,8.70
2017-10-18T01:38:58.417Z,8.70
2017-10-18T01:41:26.507Z,8.60
2017-10-18T01:43:54.579Z,8.70
2017-10-18T01:46:22.571Z,8.80
2017-10-18T01:48:51.059Z,8.80
2017-10-18T01:51:19.829Z,8.90
2017-10-18T01:53:47.887Z,8.90
2017-10-18T01:56:15.859Z,8.80
2017-10-18T01:58:43.915Z,8.70
2017-10-18T02:01:11.906Z,8.60
2017-10-18T02:03:40.804Z,8.40
2017-10-18T02:06:08.829Z,8.40
2017-10-18T02:08:36.872Z,8.60
2017-10-18T02:11:04.862Z,8.60
2017-10-18T02:13:32.883Z,8.60
2017-10-18T02:16:00.815Z,8.60
2017-10-18T02:18:28.815Z,8.70
2017-10-18T02:20:56.779Z,8.70
2017-10-18T02:23:28.687Z,8.60
2017-10-18T02:26:05.538Z,8.50
2017-10-18T02:28:38.987Z,8.60
2017-10-18T02:31:10.468Z,8.60
2017-10-18T02:33:42.518Z,8.60
2017-10-18T02:36:16.569Z,8.60
2017-10-18T02:38:50.930Z,8.50
2017-10-18T02:41:22.930Z,8.40
2017-10-18T02:43:54.954Z,8.40
2017-10-18T02:46:27.855Z,8.30
2017-10-18T02:49:03.671Z,8.30
2017-10-18T02:51:40.899Z,8.30
2017-10-18T02:54:15.961Z,8.30
2017-10-18T02:56:52.423Z,8.20
2017-10-18T02:59:31.144Z,8.20
2017-10-18T03:02:04.875Z,8.20
2017-10-18T03:04:53.621Z,8.10
2017-10-18T03:07:22.507Z,8.10
2017-10-18T03:09:50.638Z,8.20
2017-10-18T03:12:18.695Z,8.20
2017-10-18T03:14:47.658Z,8.20
2017-10-18T03:17:16.505Z,8.20
2017-10-18T03:19:44.751Z,8.20
2017-10-18T03:22:12.825Z,8.20
2017-10-18T03:24:41.044Z,8.20
2017-10-18T03:27:09.159Z,8.10
2017-10-18T03:29:37.333Z,8.10
2017-10-18T03:32:06.181Z,8.10
2017-10-18T03:34:34.406Z,8.10
2017-10-18T03:37:03.430Z,8.10
2017-10-18T03:39:31.567Z,8.10
2017-10-18T03:42:01.839Z,8.10
2017-10-18T03:44:31.192Z,8.00
2017-10-18T03:47:01.775Z,7.90
2017-10-18T03:49:29.951Z,7.80
2017-10-18T03:51:59.104Z,7.90
2017-10-18T03:54:33.986Z,7.70
2017-10-18T03:57:02.259Z,7.70
2017-10-18T03:59:44.095Z,7.70
2017-10-18T04:02:13.587Z,7.80
2017-10-18T04:04:42.071Z,7.70
2017-10-18T04:07:10.251Z,7.70
2017-10-18T04:09:38.372Z,7.80
2017-10-18T04:12:06.967Z,7.80
2017-10-18T04:14:35.299Z,7.80
2017-10-18T04:19:47.158Z,7.80
2017-10-18T04:22:18.404Z,7.80
2017-10-18T04:24:50.591Z,7.80
2017-10-18T04:27:24.241Z,7.70
2017-10-18T04:30:05.317Z,7.80
2017-10-18T04:35:22.289Z,7.80
2017-10-18T04:37:51.181Z,7.80
2017-10-18T04:40:25.709Z,7.80
2017-10-18T04:43:00.790Z,7.70
2017-10-18T04:45:29.015Z,7.70
2017-10-18T04:48:07.720Z,7.70
2017-10-18T04:50:35.896Z,7.60
2017-10-18T04:53:08.946Z,7.60
2017-10-18T04:55:37.747Z,7.50
2017-10-18T04:58:08.652Z,7.60
2017-10-18T05:00:38.798Z,7.60
2017-10-18T05:03:06.840Z,7.60
2017-10-18T05:05:34.927Z,7.50
2017-10-18T05:08:03.040Z,7.50
2017-10-18T05:10:31.140Z,7.50
2017-10-18T05:12:59.262Z,7.50
2017-10-18T05:15:27.457Z,7.60
2017-10-18T05:17:55.962Z,7.60
2017-10-18T05:20:24.098Z,7.60
2017-10-18T05:22:52.625Z,7.60
2017-10-18T05:25:26.129Z,7.50
2017-10-18T05:54:18.310Z,6.70
2017-10-18T05:56:56.944Z,6.80
2017-10-18T05:59:52.419Z,6.80
